createdAt,value
2024-01-09T00:01:45.843Z,17.33
2024-01-09T00:04:12.871Z,17.48
2024-01-09T00:06:40.238Z,16.50
2024-01-09T00:09:07.369Z,15.45
2024-01-09T00:11:34.478Z,16.73
2024-01-09T00:14:01.570Z,18.80
2024-01-09T00:16:28.660Z,18.27
2024-01-09T00:18:55.834Z,15.70
2024-01-09T00:21:23.907Z,18.83
2024-01-09T00:23:50.959Z,18.83
2024-01-09T00:26:18.752Z,17.25
2024-01-09T00:28:45.778Z,16.40
2024-01-09T00:31:13.590Z,17.60
2024-01-09T00:33:40.637Z,18.98
2024-01-09T00:36:07.949Z,17.25
2024-01-09T00:38:36.581Z,17.13
2024-01-09T00:41:03.691Z,19.83
2024-01-09T00:43:30.807Z,19.17
2024-01-09T00:45:59.023Z,18.52
2024-01-09T00:48:26.152Z,18.33
2024-01-09T00:50:53.467Z,17.02
2024-01-09T00:53:21.749Z,17.23
2024-01-09T00:55:48.795Z,18.23
2024-01-09T00:58:15.837Z,18.10
2024-01-09T01:00:42.902Z,17.95
2024-01-09T01:03:09.881Z,17.20
2024-01-09T01:05:37.019Z,17.98
2024-01-09T01:08:04.119Z,18.92
2024-01-09T01:10:31.164Z,19.02
2024-01-09T01:12:58.121Z,18.13
2024-01-09T01:15:26.556Z,19.73
2024-01-09T01:17:53.915Z,21.17
2024-01-09T01:20:21.042Z,19.17
2024-01-09T01:22:48.264Z,18.23
2024-01-09T01:25:15.260Z,18.75
2024-01-09T01:27:42.262Z,18.98
2024-01-09T01:30:09.476Z,16.85
2024-01-09T01:32:36.596Z,17.58
2024-01-09T01:35:03.803Z,16.98
2024-01-09T01:37:30.811Z,18.45
2024-01-09T01:39:57.884Z,19.00
2024-01-09T01:42:24.865Z,18.13
2024-01-09T01:44:52.011Z,18.35
2024-01-09T01:47:19.892Z,19.33
2024-01-09T01:49:47.182Z,18.65
2024-01-09T01:52:14.830Z,15.85
2024-01-09T01:54:43.215Z,15.15
2024-01-09T01:57:10.713Z,18.38
2024-01-09T01:59:40.429Z,16.80
2024-01-09T02:02:07.678Z,16.92
2024-01-09T02:04:35.589Z,18.58
2024-01-09T02:07:02.705Z,18.25
2024-01-09T02:09:29.954Z,15.80
2024-01-09T02:11:57.191Z,17.10
2024-01-09T02:14:24.345Z,18.27
2024-01-09T02:16:51.421Z,16.70
2024-01-09T02:19:26.850Z,15.07
2024-01-09T02:21:54.206Z,16.52
2024-01-09T02:24:21.340Z,16.10
2024-01-09T02:27:00.143Z,17.63
2024-01-09T02:29:33.619Z,17.00
2024-01-09T02:32:01.443Z,15.88
2024-01-09T02:34:29.535Z,16.52
2024-01-09T02:36:56.787Z,16.10
2024-01-09T02:39:23.918Z,15.93
2024-01-09T02:41:52.110Z,16.55
2024-01-09T02:44:19.768Z,16.95
2024-01-09T02:46:46.839Z,16.42
2024-01-09T02:49:14.047Z,17.38
2024-01-09T02:51:41.132Z,17.85
2024-01-09T02:54:08.168Z,15.23
2024-01-09T02:56:38.282Z,16.25
2024-01-09T02:59:05.429Z,18.33
2024-01-09T03:01:32.764Z,17.92
2024-01-09T03:03:59.837Z,18.10
2024-01-09T03:06:27.044Z,17.13
2024-01-09T03:08:54.225Z,17.25
2024-01-09T03:11:22.342Z,17.77
2024-01-09T03:13:49.398Z,17.55
2024-01-09T03:16:16.456Z,16.30
2024-01-09T03:18:44.293Z,17.00
2024-01-09T03:21:11.820Z,17.00
2024-01-09T03:23:38.938Z,17.83
2024-01-09T03:26:06.192Z,16.70
2024-01-09T03:28:33.705Z,17.25
2024-01-09T03:31:00.719Z,18.40
2024-01-09T03:33:27.901Z,17.98
2024-01-09T03:35:55.105Z,18.23
2024-01-09T03:38:22.295Z,17.15
2024-01-09T03:40:49.363Z,19.02
2024-01-09T03:43:16.394Z,17.35
2024-01-09T03:45:43.433Z,18.35
2024-01-09T03:48:10.535Z,18.48
2024-01-09T03:50:37.569Z,16.30
2024-01-09T03:53:05.755Z,17.77
2024-01-09T03:55:32.744Z,16.25
2024-01-09T03:57:59.800Z,17.63
2024-01-09T04:00:26.855Z,16.48
2024-01-09T04:02:53.930Z,15.63
2024-01-09T04:05:21.175Z,15.52
2024-01-09T04:07:48.380Z,16.70
2024-01-09T04:10:15.569Z,17.08
2024-01-09T04:12:42.586Z,15.43
2024-01-09T04:15:09.949Z,16.05
2024-01-09T04:17:37.084Z,17.13
2024-01-09T04:20:05.775Z,16.48
2024-01-09T04:22:32.871Z,16.95
2024-01-09T04:24:59.951Z,16.58
2024-01-09T04:27:27.251Z,16.52
2024-01-09T04:29:54.288Z,15.93
2024-01-09T04:32:21.419Z,15.07
2024-01-09T04:34:48.548Z,15.70
2024-01-09T04:37:15.675Z,16.55
2024-01-09T04:39:42.711Z,15.60
2024-01-09T04:42:09.714Z,17.90
2024-01-09T04:44:36.746Z,14.98
2024-01-09T04:47:03.938Z,15.88
2024-01-09T04:49:31.544Z,15.25
2024-01-09T04:51:58.589Z,16.50
2024-01-09T04:54:25.550Z,16.60
2024-01-09T04:56:54.657Z,15.93
2024-01-09T04:59:22.905Z,14.13
2024-01-09T05:01:50.576Z,16.15
2024-01-09T05:04:17.611Z,14.32
2024-01-09T05:06:44.825Z,15.13
2024-01-09T05:09:12.421Z,17.27
2024-01-09T05:11:39.436Z,15.70
2024-01-09T05:14:06.537Z,15.10
2024-01-09T05:16:33.504Z,14.63
2024-01-09T05:19:00.700Z,15.70
2024-01-09T05:21:27.996Z,14.52
2024-01-09T05:23:55.162Z,16.58
2024-01-09T05:26:22.220Z,16.23
2024-01-09T05:28:50.511Z,17.08
2024-01-09T05:31:17.448Z,15.35
2024-01-09T05:33:44.742Z,15.63
2024-01-09T05:36:12.054Z,15.68
2024-01-09T05:38:39.149Z,15.38
2024-01-09T05:41:07.169Z,15.48
2024-01-09T05:43:34.285Z,15.75
2024-01-09T05:46:01.409Z,15.13
2024-01-09T05:48:28.692Z,16.98
2024-01-09T05:50:55.886Z,15.73
2024-01-09T05:53:22.962Z,16.08
2024-01-09T05:55:49.945Z,16.17
2024-01-09T05:58:17.046Z,16.55
2024-01-09T06:00:44.215Z,17.80
2024-01-09T06:03:11.464Z,16.90
2024-01-09T06:05:38.740Z,17.83
2024-01-09T06:08:06.120Z,14.85
2024-01-09T06:10:33.180Z,16.42
2024-01-09T06:13:00.258Z,16.95
2024-01-09T06:15:27.271Z,16.65
2024-01-09T06:17:55.573Z,16.85
2024-01-09T06:20:23.993Z,15.35
2024-01-09T06:22:51.022Z,16.13
2024-01-09T06:25:17.962Z,22.02
2024-01-09T06:27:45.111Z,17.92
2024-01-09T06:30:12.476Z,31.35
2024-01-09T06:32:39.599Z,17.85
2024-01-09T06:35:06.872Z,21.60
2024-01-09T06:37:34.604Z,15.75
2024-01-09T06:40:01.565Z,17.15
2024-01-09T06:42:30.625Z,15.35
2024-01-09T06:44:57.686Z,14.82
2024-01-09T06:47:24.903Z,14.93
2024-01-09T06:49:54.725Z,17.35
2024-01-09T06:52:22.207Z,15.27
2024-01-09T06:54:49.169Z,15.85
2024-01-09T06:57:16.269Z,14.15
2024-01-09T06:59:47.495Z,14.93
2024-01-09T07:02:14.708Z,15.40
2024-01-09T07:04:41.831Z,15.80
2024-01-09T07:07:11.320Z,16.10
2024-01-09T07:09:40.145Z,23.80
2024-01-09T07:12:09.561Z,16.40
2024-01-09T07:14:38.068Z,17.55
2024-01-09T07:17:05.265Z,21.98
2024-01-09T07:19:32.543Z,19.80
2024-01-09T07:21:59.672Z,17.60
2024-01-09T07:24:26.739Z,19.13
2024-01-09T07:26:53.893Z,17.40
2024-01-09T07:29:21.098Z,18.42
2024-01-09T07:31:49.148Z,17.35
2024-01-09T07:34:16.431Z,19.25
2024-01-09T07:36:44.275Z,16.83
2024-01-09T07:39:11.377Z,17.55
2024-01-09T07:41:38.826Z,17.23
2024-01-09T07:44:05.998Z,18.98
2024-01-09T07:46:33.226Z,18.90
2024-01-09T07:49:00.444Z,16.23
2024-01-09T07:51:27.932Z,22.25
2024-01-09T07:53:55.004Z,21.08
2024-01-09T07:56:23.231Z,24.08
2024-01-09T07:58:50.323Z,19.13
2024-01-09T08:01:18.082Z,20.55
2024-01-09T08:03:45.214Z,21.00
2024-01-09T08:06:13.330Z,21.25
2024-01-09T08:08:40.586Z,21.70
2024-01-09T08:11:07.645Z,21.52
2024-01-09T08:13:35.222Z,21.08
2024-01-09T08:16:02.298Z,18.92
2024-01-09T08:18:29.617Z,19.20
2024-01-09T08:20:57.443Z,20.48
2024-01-09T08:23:25.579Z,18.55
2024-01-09T08:25:52.620Z,19.65
2024-01-09T08:28:19.645Z,19.77
2024-01-09T08:30:46.866Z,18.20
2024-01-09T08:33:14.239Z,20.02
2024-01-09T08:35:41.416Z,18.10
2024-01-09T08:38:08.587Z,20.77
2024-01-09T08:40:36.860Z,18.13
2024-01-09T08:43:04.941Z,17.85
2024-01-09T08:45:31.960Z,18.52
2024-01-09T08:48:00.134Z,21.55
2024-01-09T08:50:27.306Z,19.40
2024-01-09T08:52:55.792Z,20.85
2024-01-09T08:55:22.905Z,22.55
2024-01-09T08:57:50.398Z,21.38
2024-01-09T09:00:17.916Z,29.65
2024-01-09T09:02:45.012Z,22.38
2024-01-09T09:05:12.686Z,22.15
2024-01-09T09:07:40.095Z,20.52
2024-01-09T09:10:07.809Z,22.00
2024-01-09T09:12:34.789Z,21.83
2024-01-09T09:15:04.295Z,23.08
2024-01-09T09:17:32.440Z,22.00
2024-01-09T09:19:59.622Z,24.33
2024-01-09T09:22:27.226Z,29.17
2024-01-09T09:24:54.388Z,25.98
2024-01-09T09:27:21.377Z,24.23
2024-01-09T09:29:48.531Z,24.92
2024-01-09T09:32:15.563Z,25.38
2024-01-09T09:34:45.286Z,27.48
2024-01-09T09:37:14.005Z,29.45
2024-01-09T09:39:41.049Z,25.17
2024-01-09T09:42:09.086Z,28.65
2024-01-09T09:44:38.092Z,27.10
2024-01-09T09:47:06.698Z,27.40
2024-01-09T09:49:36.351Z,29.20
2024-01-09T09:52:03.603Z,27.20
2024-01-09T09:54:30.697Z,26.65
2024-01-09T09:56:57.840Z,23.70
2024-01-09T09:59:24.849Z,27.23
2024-01-09T10:01:52.380Z,27.73
2024-01-09T10:04:29.064Z,29.58
2024-01-09T10:06:57.639Z,28.33
2024-01-09T10:09:28.763Z,29.10
2024-01-09T10:14:22.939Z,30.02
2024-01-09T10:16:53.817Z,28.77
2024-01-09T10:19:21.231Z,29.35
2024-01-09T10:21:48.298Z,29.88
2024-01-09T10:24:15.791Z,39.67
2024-01-09T10:26:44.194Z,32.55
2024-01-09T10:29:11.666Z,29.95
2024-01-09T10:31:40.295Z,34.20
2024-01-09T10:34:07.435Z,34.40
2024-01-09T10:36:35.649Z,33.45
2024-01-09T10:39:06.388Z,33.78
2024-01-09T10:41:34.188Z,32.80
2024-01-09T10:44:01.393Z,28.13
2024-01-09T10:46:31.133Z,31.88
2024-01-09T10:48:59.210Z,29.15
2024-01-09T10:51:26.338Z,28.50
2024-01-09T10:53:54.144Z,28.20
2024-01-09T10:56:23.064Z,27.67
2024-01-09T10:58:50.693Z,30.02
2024-01-09T11:01:18.074Z,37.13
2024-01-09T11:03:45.915Z,52.33
2024-01-09T11:06:15.962Z,30.23
2024-01-09T11:08:44.732Z,43.50
2024-01-09T11:11:13.772Z,33.15
2024-01-09T11:13:43.435Z,27.67
2024-01-09T11:16:11.342Z,33.28
2024-01-09T11:18:38.777Z,33.55
2024-01-09T11:21:05.991Z,33.88
2024-01-09T11:23:45.542Z,30.77
2024-01-09T11:26:16.006Z,30.55
2024-01-09T11:28:47.339Z,34.88
2024-01-09T11:31:18.476Z,37.55
2024-01-09T11:33:48.213Z,35.25
2024-01-09T11:36:21.827Z,37.08
2024-01-09T11:38:50.150Z,33.47
2024-01-09T11:41:18.835Z,38.47
2024-01-09T11:44:04.669Z,38.55
2024-01-09T11:46:33.176Z,38.13
2024-01-09T11:49:02.018Z,37.53
2024-01-09T11:51:32.665Z,38.50
2024-01-09T11:54:00.393Z,40.28
2024-01-09T11:56:28.204Z,40.42
2024-01-09T11:58:55.971Z,40.83
2024-01-09T12:01:23.514Z,36.45
2024-01-09T12:03:54.989Z,33.88
2024-01-09T12:06:24.424Z,33.00
2024-01-09T12:08:52.341Z,34.83
2024-01-09T12:11:19.561Z,37.47
2024-01-09T12:13:46.983Z,36.45
2024-01-09T12:16:17.109Z,32.83
2024-01-09T12:18:48.135Z,34.27
2024-01-09T12:23:56.235Z,33.88
2024-01-09T12:26:29.759Z,38.92
2024-01-09T12:28:56.869Z,34.63
2024-01-09T12:31:24.827Z,35.40
2024-01-09T12:33:53.086Z,30.70
2024-01-09T12:36:20.503Z,38.83
2024-01-09T12:38:47.717Z,36.92
2024-01-09T12:41:20.674Z,40.00
2024-01-09T12:43:47.939Z,38.72
2024-01-09T12:46:15.165Z,40.78
2024-01-09T12:48:44.118Z,37.33
2024-01-09T12:51:11.411Z,37.28
2024-01-09T12:53:39.960Z,33.08
2024-01-09T12:56:08.209Z,37.92
2024-01-09T12:58:36.502Z,36.83
2024-01-09T13:01:06.813Z,29.65
2024-01-09T13:03:34.748Z,25.33
2024-01-09T13:06:05.668Z,35.45
2024-01-09T13:08:36.187Z,40.88
2024-01-09T13:11:06.680Z,36.40
2024-01-09T13:13:34.366Z,35.78
2024-01-09T13:16:04.417Z,30.02
2024-01-09T13:18:31.616Z,30.57
2024-01-09T13:20:58.755Z,34.33
2024-01-09T13:23:48.226Z,34.70
2024-01-09T13:26:14.102Z,33.90
2024-01-09T13:30:42.969Z,40.60
2024-01-09T13:31:28.993Z,27.40
2024-01-09T13:33:56.256Z,28.50
2024-01-09T13:36:23.534Z,32.17
2024-01-09T13:38:50.746Z,30.73
2024-01-09T13:41:18.339Z,32.92
2024-01-09T13:43:45.381Z,30.92
2024-01-09T13:46:12.898Z,25.70
2024-01-09T13:48:42.063Z,31.98
2024-01-09T13:53:39.532Z,33.45
2024-01-09T13:56:07.186Z,34.50
2024-01-09T13:58:35.320Z,31.27
2024-01-09T14:01:02.402Z,33.33
2024-01-09T14:03:30.330Z,39.00
2024-01-09T14:05:58.929Z,36.30
2024-01-09T14:08:26.376Z,37.63
2024-01-09T14:10:54.219Z,33.17
2024-01-09T14:13:21.334Z,36.47
2024-01-09T14:15:48.533Z,39.65
2024-01-09T14:18:15.729Z,37.28
2024-01-09T14:20:42.908Z,32.20
2024-01-09T14:23:10.026Z,34.08
2024-01-09T14:25:39.492Z,30.98
2024-01-09T14:30:35.222Z,29.80
2024-01-09T14:33:02.633Z,31.08
2024-01-09T14:35:29.873Z,30.05
2024-01-09T14:37:56.913Z,26.75
2024-01-09T14:40:30.115Z,27.23
2024-01-09T14:42:58.164Z,39.17
2024-01-09T14:45:25.367Z,26.58
2024-01-09T14:47:52.482Z,28.33
2024-01-09T14:50:19.718Z,37.25
2024-01-09T14:52:46.766Z,29.45
2024-01-09T14:55:13.866Z,31.00
2024-01-09T14:57:41.418Z,40.80
2024-01-09T15:00:08.785Z,31.98
2024-01-09T15:02:35.910Z,36.55
2024-01-09T15:05:03.320Z,38.05
2024-01-09T15:07:30.694Z,37.50
2024-01-09T15:09:57.927Z,30.88
2024-01-09T15:12:29.015Z,29.58
2024-01-09T15:14:58.721Z,35.67
2024-01-09T15:17:26.107Z,35.00
2024-01-09T15:19:53.111Z,31.02
2024-01-09T15:22:20.249Z,35.35
2024-01-09T15:24:48.130Z,42.92
2024-01-09T15:27:15.156Z,38.92
2024-01-09T15:29:42.859Z,31.50
2024-01-09T15:32:10.172Z,29.35
2024-01-09T15:34:37.267Z,28.35
2024-01-09T15:37:04.502Z,37.17
2024-01-09T15:39:32.035Z,33.92
2024-01-09T15:41:59.538Z,32.30
2024-01-09T15:44:26.837Z,42.47
2024-01-09T15:46:55.220Z,40.58
2024-01-09T15:49:22.837Z,33.10
2024-01-09T15:51:50.148Z,30.45
2024-01-09T15:54:17.234Z,34.08
2024-01-09T15:56:44.494Z,29.90
2024-01-09T15:59:11.781Z,31.92
2024-01-09T16:01:39.095Z,37.00
2024-01-09T16:04:07.698Z,52.05
2024-01-09T16:06:35.660Z,44.08
2024-01-09T16:09:03.003Z,33.47
2024-01-09T16:11:29.992Z,33.45
2024-01-09T16:13:57.012Z,34.45
2024-01-09T16:16:24.825Z,38.00
2024-01-09T16:18:52.298Z,35.10
2024-01-09T16:21:19.520Z,30.73
2024-01-09T16:23:48.205Z,35.13
2024-01-09T16:26:15.916Z,36.25
2024-01-09T16:28:43.804Z,40.50
2024-01-09T16:31:12.259Z,35.95
2024-01-09T16:33:40.634Z,34.08
2024-01-09T16:36:08.554Z,33.00
2024-01-09T16:38:35.663Z,39.20
2024-01-09T16:41:05.685Z,39.17
2024-01-09T16:43:33.146Z,32.30
2024-01-09T16:46:00.406Z,37.15
2024-01-09T16:48:34.783Z,48.28
2024-01-09T16:51:06.513Z,33.45
2024-01-09T16:53:34.000Z,45.47
2024-01-09T16:56:03.801Z,32.58
2024-01-09T16:58:32.360Z,27.38
2024-01-09T17:01:00.259Z,29.55
2024-01-09T17:03:30.686Z,25.50
2024-01-09T17:05:58.404Z,21.48
2024-01-09T17:08:27.964Z,37.20
2024-01-09T17:10:58.137Z,61.90
2024-01-09T17:13:26.471Z,24.98
2024-01-09T17:15:53.625Z,37.10
2024-01-09T17:18:24.041Z,23.70
2024-01-09T17:20:51.210Z,28.63
2024-01-09T17:23:18.296Z,29.70
2024-01-09T17:25:46.575Z,27.60
2024-01-09T17:28:13.589Z,53.40
2024-01-09T17:30:40.735Z,36.33
2024-01-09T17:33:07.872Z,33.03
2024-01-09T17:35:35.083Z,44.70
2024-01-09T17:38:02.613Z,29.77
2024-01-09T17:40:29.590Z,33.75
2024-01-09T17:42:57.279Z,36.10
2024-01-09T17:45:24.209Z,39.00
2024-01-09T17:47:51.636Z,47.45
2024-01-09T17:50:21.306Z,41.17
2024-01-09T17:52:48.601Z,43.10
2024-01-09T17:55:15.943Z,49.10
2024-01-09T17:57:43.566Z,100.47
2024-01-09T18:00:10.863Z,68.90
2024-01-09T18:02:39.921Z,29.13
2024-01-09T18:05:08.034Z,34.17
2024-01-09T18:07:35.297Z,34.03
2024-01-09T18:10:02.412Z,26.35
2024-01-09T18:12:31.002Z,30.75
2024-01-09T18:14:59.334Z,28.38
2024-01-09T18:17:32.214Z,31.83
2024-01-09T18:19:59.809Z,62.55
2024-01-09T18:22:26.964Z,33.90
2024-01-09T18:24:54.481Z,33.80
2024-01-09T18:27:21.480Z,30.80
2024-01-09T18:29:49.473Z,30.70
2024-01-09T18:32:21.542Z,29.25
2024-01-09T18:34:49.218Z,29.83
2024-01-09T18:37:16.234Z,29.10
2024-01-09T18:39:45.101Z,27.48
2024-01-09T18:42:12.111Z,23.70
2024-01-09T18:44:41.088Z,27.98
2024-01-09T18:47:08.283Z,23.55
2024-01-09T18:49:37.160Z,25.95
2024-01-09T18:52:06.621Z,24.92
2024-01-09T18:54:33.779Z,28.65
2024-01-09T18:57:01.318Z,27.90
2024-01-09T18:59:28.587Z,24.42
2024-01-09T19:01:58.296Z,22.63
2024-01-09T19:04:25.597Z,24.08
2024-01-09T19:06:53.160Z,23.25
2024-01-09T19:09:23.757Z,24.83
2024-01-09T19:11:51.097Z,24.25
2024-01-09T19:14:21.809Z,26.98
2024-01-09T19:16:48.987Z,23.45
2024-01-09T19:19:17.379Z,26.00
2024-01-09T19:21:49.174Z,29.83
2024-01-09T19:29:19.773Z,31.10
2024-01-09T19:31:48.401Z,22.85
2024-01-09T19:34:15.517Z,23.73
2024-01-09T19:36:47.088Z,26.70
2024-01-09T19:39:14.318Z,30.20
2024-01-09T19:41:42.022Z,24.05
2024-01-09T19:44:09.209Z,26.92
2024-01-09T19:46:39.721Z,23.83
2024-01-09T19:49:06.861Z,26.67
2024-01-09T19:51:34.096Z,19.25
2024-01-09T19:54:01.146Z,24.27
2024-01-09T19:56:34.021Z,28.48
2024-01-09T19:59:01.582Z,28.58
2024-01-09T20:01:28.723Z,32.72
2024-01-09T20:03:55.978Z,30.27
2024-01-09T20:06:25.632Z,29.65
2024-01-09T20:08:53.209Z,26.35
2024-01-09T20:11:28.503Z,20.65
2024-01-09T20:13:57.992Z,19.20
2024-01-09T20:16:26.423Z,22.02
2024-01-09T20:18:53.782Z,21.85
2024-01-09T20:21:31.273Z,22.50
2024-01-09T20:23:58.644Z,21.27
2024-01-09T20:26:29.204Z,18.88
2024-01-09T20:28:56.815Z,21.50
2024-01-09T20:31:24.424Z,21.55
2024-01-09T20:33:52.452Z,17.92
2024-01-09T20:36:20.144Z,20.08
2024-01-09T20:38:47.618Z,22.40
2024-01-09T20:41:14.751Z,21.50
2024-01-09T20:43:41.962Z,20.33
2024-01-09T20:46:09.206Z,20.83
2024-01-09T20:48:36.495Z,20.23
2024-01-09T20:51:08.147Z,22.45
2024-01-09T20:53:36.259Z,18.92
2024-01-09T20:56:03.970Z,28.40
2024-01-09T20:58:32.319Z,23.48
2024-01-09T21:01:00.681Z,19.63
2024-01-09T21:03:29.544Z,16.77
2024-01-09T21:05:56.880Z,18.25
2024-01-09T21:08:24.372Z,38.42
2024-01-09T21:10:52.754Z,19.85
2024-01-09T21:13:20.499Z,21.60
2024-01-09T21:15:47.602Z,37.42
2024-01-09T21:18:14.930Z,21.52
2024-01-09T21:20:42.562Z,20.35
2024-01-09T21:23:10.003Z,24.27
2024-01-09T21:25:37.729Z,29.90
2024-01-09T21:28:05.173Z,23.33
2024-01-09T21:30:32.718Z,32.20
2024-01-09T21:32:59.773Z,22.95
2024-01-09T21:35:26.947Z,84.47
2024-01-09T21:37:54.363Z,22.67
2024-01-09T21:40:21.780Z,44.75
2024-01-09T21:42:51.614Z,22.05
2024-01-09T21:45:18.770Z,23.52
2024-01-09T21:47:46.112Z,53.92
2024-01-09T21:50:13.360Z,20.58
2024-01-09T21:52:40.801Z,17.90
2024-01-09T21:55:08.531Z,20.35
2024-01-09T21:57:35.570Z,23.35
2024-01-09T22:00:02.760Z,20.55
2024-01-09T22:02:38.703Z,16.58
2024-01-09T22:05:06.011Z,19.70
2024-01-09T22:07:33.205Z,26.95
2024-01-09T22:10:00.280Z,24.63
2024-01-09T22:12:27.290Z,22.35
2024-01-09T22:14:54.394Z,18.60
2024-01-09T22:17:21.390Z,21.75
2024-01-09T22:19:48.448Z,19.25
2024-01-09T22:22:15.433Z,17.70
2024-01-09T22:24:44.095Z,19.17
2024-01-09T22:27:11.098Z,20.17
2024-01-09T22:29:38.246Z,38.20
2024-01-09T22:32:06.010Z,27.30
2024-01-09T22:34:33.341Z,21.20
2024-01-09T22:37:00.473Z,20.55
2024-01-09T22:39:27.706Z,18.73
2024-01-09T22:41:55.225Z,23.27
2024-01-09T22:44:22.336Z,20.63
2024-01-09T22:46:49.423Z,18.58
2024-01-09T22:49:16.747Z,17.52
2024-01-09T22:51:43.930Z,18.33
2024-01-09T22:54:11.675Z,17.52
2024-01-09T22:56:43.210Z,16.80
2024-01-09T22:59:11.731Z,16.42
2024-01-09T23:01:39.024Z,19.90
2024-01-09T23:04:06.471Z,15.32
2024-01-09T23:06:33.530Z,17.55
2024-01-09T23:09:00.695Z,18.45
2024-01-09T23:11:27.827Z,16.08
2024-01-09T23:13:54.974Z,17.60
2024-01-09T23:16:22.780Z,17.13
2024-01-09T23:18:49.916Z,15.55
2024-01-09T23:21:21.650Z,16.40
2024-01-09T23:23:49.164Z,16.38
2024-01-09T23:26:16.700Z,14.05
2024-01-09T23:28:43.799Z,13.27
2024-01-09T23:31:11.399Z,14.93
2024-01-09T23:33:38.622Z,13.80
2024-01-09T23:36:07.404Z,14.80
2024-01-09T23:38:34.518Z,15.68
2024-01-09T23:41:01.911Z,15.80
2024-01-09T23:43:28.962Z,16.80
2024-01-09T23:45:57.057Z,12.43
2024-01-09T23:48:24.206Z,14.65
2024-01-09T23:50:51.320Z,18.98
2024-01-09T23:53:20.177Z,20.02
2024-01-09T23:55:47.218Z,17.45
2024-01-09T23:58:14.499Z,15.38
